Bro Anna — 9V3609 — position and weather

sailwx.info

Track history (hours):
 
Tides and Currents Weather Stations Pressure Air Temp Water Temp Dewpoint Dewpoint Depression Visibility Wind Speed Wind Dir Waves Ship Positions

Bro Anna

Last reported at 2018-Feb-09 14:30 UTC. Time now 2018-Feb-20 19:49 UTC.
Position N 49°49' W 003°23'.
Warning: this ship's position is 11 days out of date.

Length 144 m; draft 6 m.

Type: Tanker. MMSI: 564066000.

Date/timePositionNaut miles runAvg speedWind from/ knotsBaromVisibWave heightAir tempDewpointWater temp
2018-Feb-09 14:30N 49°49' W 003°23'4 7.8
2018-Feb-09 14:00N 49°51' W 003°17'4 7.7
2018-Feb-09 13:30N 49°53' W 003°12'4 8.1
2018-Feb-09 13:00N 49°55' W 003°07'4 8.3
2018-Feb-09 12:30N 49°58' W 003°01'4 8.2
2018-Feb-09 12:00N 49°59' W 002°55'8 8.1
2018-Feb-09 11:00N 50°01' W 002°43'5510.0
2018-Feb-09 05:30N 50°16' W 001°20'40 9.0
2018-Feb-09 01:00N 50°27' W 000°19'5 9.8
2018-Feb-09 00:30N 50°28' W 000°12'510.3
2018-Feb-09 00:00N 50°30' W 000°04'1110.9
2018-Feb-08 23:00N 50°32' E 000°13'611.5
2018-Feb-08 22:30N 50°34' E 000°21'611.7
2018-Feb-08 22:00N 50°35' E 000°30'611.6
2018-Feb-08 21:30N 50°38' E 000°38'611.7
2018-Feb-08 21:00N 50°41' E 000°46'611.3
2018-Feb-08 20:30N 50°44' E 000°53'611.1
2018-Feb-08 20:00N 50°47' E 001°01'25 9.8
2018-Feb-08 17:30N 51°04' E 001°30'4 8.9
2018-Feb-08 17:00N 51°07' E 001°35'5 9.4
2018-Feb-08 16:30N 51°10' E 001°40'510.3
2018-Feb-08 16:00N 51°14' E 001°46'1211.7
2018-Feb-08 15:00N 51°25' E 001°54'1312.6
2018-Feb-08 14:00N 51°34' E 002°06'611.2
2018-Feb-08 13:30N 51°39' E 002°12'1010.1
2018-Feb-08 12:30N 51°46' E 002°23'257 8.6
2018-Feb-07 06:33N 55°32' E 005°51'211.5
2018-Feb-07 06:22N 55°33' E 005°52'411.4
2018-Feb-07 05:59N 55°37' E 005°56'611.4
2018-Feb-07 05:29N 55°42' E 006°01'18911.3
2018-Feb-06 12:46N 57°49' E 010°17'312.8
2018-Feb-06 12:30N 57°49' E 010°24'612.9
2018-Feb-06 12:00N 57°49' E 010°36'612.1
2018-Feb-06 11:30N 57°47' E 010°47'613.0
2018-Feb-06 11:00N 57°41' E 010°44'4 7.9
2018-Feb-06 10:30N 57°38' E 010°38'1 2.1
2018-Feb-06 09:58N 57°39' E 010°37'0 0.0
2018-Feb-06 09:28N 57°39' E 010°37'0 0.0
2018-Feb-06 08:58N 57°39' E 010°37'0 0.0
2018-Feb-06 08:28N 57°39' E 010°37'0 0.0
2018-Feb-06 07:58N 57°39' E 010°37'0 0.0
2018-Feb-06 07:28N 57°39' E 010°37'0 0.0
2018-Feb-06 06:58N 57°39' E 010°37'0 0.0
2018-Feb-06 06:28N 57°39' E 010°37'0 0.0
2018-Feb-06 05:58N 57°39' E 010°37'0 0.0
2018-Feb-06 05:28N 57°39' E 010°37'0 0.0
2018-Feb-06 04:58N 57°39' E 010°37'0 0.0
2018-Feb-06 04:28N 57°39' E 010°37'0 0.0
2018-Feb-06 03:52N 57°39' E 010°37'0 0.0
2018-Feb-06 03:28N 57°39' E 010°37'0 0.0
2018-Feb-06 02:58N 57°39' E 010°37'0 0.0
2018-Feb-06 02:28N 57°39' E 010°37'0 0.0
2018-Feb-06 01:55N 57°39' E 010°37'0 0.0
2018-Feb-06 01:28N 57°39' E 010°37'0 0.0
2018-Feb-06 00:58N 57°39' E 010°37'0 0.0
2018-Feb-06 00:28N 57°39' E 010°37'0 0.0
2018-Feb-05 23:52N 57°39' E 010°37'0 0.0
2018-Feb-05 23:22N 57°39' E 010°37'0 0.0
2018-Feb-05 22:58N 57°39' E 010°37'0 0.0
2018-Feb-05 22:28N 57°39' E 010°37'0 0.1
2018-Feb-05 21:58N 57°39' E 010°37'0 0.1
2018-Feb-05 21:28N 57°39' E 010°37'0 0.0
2018-Feb-05 20:58N 57°39' E 010°37'0 0.0
2018-Feb-05 20:28N 57°39' E 010°37'0 0.0
2018-Feb-05 18:52N 57°39' E 010°37'0 0.0
2018-Feb-05 18:19N 57°39' E 010°37'0 0.0
2018-Feb-05 17:34N 57°39' E 010°37'0 0.0
2018-Feb-05 17:04N 57°39' E 010°37'0 0.0
2018-Feb-05 16:19N 57°39' E 010°37'0 0.0
2018-Feb-05 15:55N 57°39' E 010°37'0 0.0
2018-Feb-05 15:28N 57°39' E 010°37'0 0.0
2018-Feb-05 14:55N 57°39' E 010°37'0 0.1
2018-Feb-05 14:25N 57°39' E 010°37'0 0.0
2018-Feb-05 13:40N 57°39' E 010°37'0 0.0
2018-Feb-05 12:55N 57°39' E 010°37'0 0.0
2018-Feb-05 12:10N 57°39' E 010°37'0 0.1
2018-Feb-05 11:58N 57°39' E 010°37'0 0.1
2018-Feb-05 11:28N 57°39' E 010°37'0 0.0
2018-Feb-05 10:40N 57°39' E 010°37'0 0.0
2018-Feb-05 10:28N 57°39' E 010°37'0 0.1
2018-Feb-05 09:52N 57°39' E 010°37'0 0.0
2018-Feb-05 09:25N 57°39' E 010°37'0 0.0
2018-Feb-05 08:58N 57°39' E 010°37'0 0.1
2018-Feb-05 08:28N 57°39' E 010°37'0 0.0
2018-Feb-05 07:58N 57°39' E 010°37'0 0.0
2018-Feb-05 07:28N 57°39' E 010°37'0 0.0
2018-Feb-05 06:55N 57°39' E 010°37'0 0.0
2018-Feb-05 06:19N 57°39' E 010°37'0 0.0
2018-Feb-05 05:28N 57°39' E 010°37'0 0.0
2018-Feb-05 04:52N 57°39' E 010°37'0 0.1
2018-Feb-05 04:28N 57°39' E 010°37'0 0.0
2018-Feb-05 03:58N 57°39' E 010°37'0 0.0
2018-Feb-05 03:28N 57°39' E 010°37'0 0.0
2018-Feb-05 02:58N 57°39' E 010°37'0 0.0
2018-Feb-05 02:25N 57°39' E 010°37'0 0.0
2018-Feb-05 01:58N 57°39' E 010°37'0 0.0
2018-Feb-05 01:28N 57°39' E 010°37'0 0.0
2018-Feb-05 00:58N 57°39' E 010°37'0 0.0
2018-Feb-05 00:28N 57°39' E 010°37'0 0.0
2018-Feb-04 23:55N 57°39' E 010°37'0 0.0
2018-Feb-04 23:22N 57°39' E 010°37'0 0.0
2018-Feb-04 22:58N 57°39' E 010°37'0 0.0
2018-Feb-04 22:28N 57°39' E 010°37'0 0.1
2018-Feb-04 21:58N 57°39' E 010°37'0 0.0
2018-Feb-04 21:28N 57°39' E 010°37'0 0.0
2018-Feb-04 20:58N 57°39' E 010°37'0 0.0
2018-Feb-04 19:58N 57°39' E 010°37'0 0.0
2018-Feb-04 19:28N 57°39' E 010°37'0 0.1
2018-Feb-04 18:58N 57°39' E 010°37'0 0.0
2018-Feb-04 18:28N 57°39' E 010°37'0 0.0
2018-Feb-04 17:58N 57°39' E 010°37'0 0.0
2018-Feb-04 17:25N 57°39' E 010°37'0 0.0
2018-Feb-04 15:28N 57°39' E 010°37'0 0.1
2018-Feb-04 14:55N 57°39' E 010°37'0 0.0
2018-Feb-04 14:28N 57°39' E 010°37'0 0.0
2018-Feb-04 13:58N 57°39' E 010°37'0 0.0
2018-Feb-04 13:28N 57°39' E 010°37'0 0.0
2018-Feb-04 12:58N 57°39' E 010°37'0 0.0
2018-Feb-04 12:25N 57°39' E 010°37'0 0.1
2018-Feb-04 11:58N 57°39' E 010°37'0 0.1
2018-Feb-04 11:28N 57°39' E 010°37'0 0.0
2018-Feb-04 09:58N 57°39' E 010°37'0 0.0
2018-Feb-04 08:58N 57°39' E 010°37'0 0.0
2018-Feb-04 08:28N 57°39' E 010°37'0 0.1
2018-Feb-04 07:58N 57°39' E 010°37'0 0.1
2018-Feb-04 07:28N 57°39' E 010°37'0 0.0
2018-Feb-04 06:58N 57°39' E 010°37'0 0.1
2018-Feb-04 06:28N 57°39' E 010°37'0 0.0
2018-Feb-04 06:01N 57°39' E 010°37'0 0.0
2018-Feb-04 05:28N 57°39' E 010°37'0 0.1
2018-Feb-04 04:58N 57°39' E 010°37'0 0.1
2018-Feb-04 04:28N 57°39' E 010°37'0 0.1
2018-Feb-04 03:55N 57°39' E 010°37'0 0.1
2018-Feb-04 03:28N 57°39' E 010°37'0 0.1
2018-Feb-04 02:58N 57°39' E 010°37'0 0.1
2018-Feb-04 02:28N 57°39' E 010°37'0 0.1
2018-Feb-04 01:58N 57°39' E 010°37'0 0.1
2018-Feb-04 01:28N 57°39' E 010°37'0 0.1
2018-Feb-04 00:58N 57°39' E 010°37'0 0.0
2018-Feb-04 00:28N 57°39' E 010°37'0 0.0
2018-Feb-03 23:58N 57°39' E 010°37'0 0.0
2018-Feb-03 23:28N 57°39' E 010°37'0 0.1
2018-Feb-03 22:58N 57°39' E 010°37'0 0.0
2018-Feb-03 22:25N 57°39' E 010°37'0 0.1
2018-Feb-03 21:58N 57°39' E 010°37'0 0.1
2018-Feb-03 21:28N 57°39' E 010°37'0 0.1
2018-Feb-03 20:58N 57°39' E 010°37'0 0.1
2018-Feb-03 20:28N 57°39' E 010°37'0 0.0
2018-Feb-03 19:55N 57°39' E 010°37'0 0.0
2018-Feb-03 18:28N 57°39' E 010°37'0 0.1
2018-Feb-03 18:01N 57°39' E 010°37'0 0.0
2018-Feb-03 17:28N 57°39' E 010°37'0 0.0
2018-Feb-03 16:55N 57°39' E 010°37'0 0.0
2018-Feb-03 15:58N 57°39' E 010°37'0 0.0
2018-Feb-03 15:28N 57°39' E 010°37'0 0.0
2018-Feb-03 14:55N 57°39' E 010°37'0 0.1
2018-Feb-03 14:28N 57°39' E 010°37'0 0.0
2018-Feb-03 13:58N 57°39' E 010°37'0 0.1
2018-Feb-03 13:25N 57°39' E 010°37'0 0.0
2018-Feb-03 12:58N 57°39' E 010°37'0 0.0
2018-Feb-03 12:28N 57°39' E 010°37'0 0.0
2018-Feb-03 11:55N 57°39' E 010°37'0 0.0
2018-Feb-03 11:28N 57°39' E 010°37'0 0.0
2018-Feb-03 10:55N 57°39' E 010°37'0 0.0
2018-Feb-03 10:28N 57°39' E 010°37'0 0.0
2018-Feb-03 09:58N 57°39' E 010°37'0 0.0
2018-Feb-03 09:28N 57°39' E 010°37'0 0.0
2018-Feb-03 08:58N 57°39' E 010°37'0 0.0
2018-Feb-03 08:28N 57°39' E 010°37'0 0.0
2018-Feb-03 07:58N 57°39' E 010°37'0 0.0
2018-Feb-03 06:22N 57°39' E 010°37'0 0.0
2018-Feb-03 05:58N 57°39' E 010°37'0 0.0
2018-Feb-03 05:28N 57°39' E 010°37'0 0.0
2018-Feb-03 04:52N 57°39' E 010°37'0 0.0
2018-Feb-03 03:58N 57°39' E 010°37'0 0.0
2018-Feb-03 03:25N 57°39' E 010°37'0 0.0
2018-Feb-03 01:58N 57°39' E 010°37'0 0.0
2018-Feb-03 01:28N 57°39' E 010°37'0 0.0
2018-Feb-03 00:58N 57°39' E 010°37'0 0.1
2018-Feb-03 00:25N 57°39' E 010°37'0 0.0
2018-Feb-02 23:58N 57°39' E 010°37'0 0.1
2018-Feb-02 23:25N 57°39' E 010°37'0 0.1
2018-Feb-02 22:58N 57°39' E 010°37'0 0.3
2018-Feb-02 22:30N 57°39' E 010°37'2 3.8
2018-Feb-02 22:00N 57°37' E 010°38'5 9.3
2018-Feb-02 21:30N 57°33' E 010°41'2 4.9
2018-Feb-02 21:00N 57°31' E 010°41'0 0.8
2018-Feb-02 20:30N 57°31' E 010°41'0 0.1
2018-Feb-02 20:00N 57°31' E 010°41'0 0.0
2018-Feb-02 19:00N 57°31' E 010°41'0 0.1
2018-Feb-02 18:30N 57°31' E 010°41'0 0.0
2018-Feb-02 18:00N 57°31' E 010°41'0 0.0
2018-Feb-02 17:30N 57°31' E 010°41'0 0.0
2018-Feb-02 17:00N 57°31' E 010°41'0 0.0
2018-Feb-02 16:30N 57°31' E 010°41'0 0.0
2018-Feb-02 15:30N 57°31' E 010°41'0 0.0
2018-Feb-02 14:30N 57°31' E 010°41'0 0.1
2018-Feb-02 13:57N 57°31' E 010°41'0 0.2
2018-Feb-02 13:30N 57°31' E 010°41'0 0.1
2018-Feb-02 13:00N 57°31' E 010°41'0 0.1
2018-Feb-02 12:30N 57°31' E 010°41'0 0.1
2018-Feb-02 12:00N 57°31' E 010°41'0 0.0
2018-Feb-02 11:30N 57°31' E 010°41'0 0.0
2018-Feb-02 11:00N 57°31' E 010°41'0 0.0
2018-Feb-02 10:30N 57°31' E 010°41'0 0.0
2018-Feb-02 10:00N 57°31' E 010°41'0 0.0
2018-Feb-02 09:27N 57°31' E 010°41'0 0.1
2018-Feb-02 08:57N 57°31' E 010°41'0 0.0
2018-Feb-02 08:30N 57°31' E 010°41'0 0.1
2018-Feb-02 08:00N 57°31' E 010°41'0 0.0
2018-Feb-02 07:30N 57°31' E 010°41'0 0.0
2018-Feb-02 06:57N 57°31' E 010°41'0 0.0
2018-Feb-02 06:30N 57°31' E 010°41'0 0.1
2018-Feb-02 05:57N 57°31' E 010°41'0 0.0
2018-Feb-02 05:24N 57°31' E 010°41'0 0.0
2018-Feb-02 05:00N 57°31' E 010°41'0 0.0
2018-Feb-02 04:24N 57°31' E 010°41'0 0.1
2018-Feb-02 03:48N 57°31' E 010°41'0 0.0
2018-Feb-01 19:28N 57°31' E 010°41'2 3.3
2018-Feb-01 19:00N 57°31' E 010°43'2 2.5
2018-Feb-01 18:19N 57°30' E 010°46'0 0.1
2018-Feb-01 17:46N 57°30' E 010°46'0 0.0
2018-Feb-01 17:13N 57°30' E 010°46'0 0.0
2018-Feb-01 16:58N 57°30' E 010°46'0 0.0
2018-Feb-01 16:25N 57°30' E 010°46'0 0.0
2018-Feb-01 15:58N 57°30' E 010°46'0 0.0
2018-Feb-01 15:28N 57°30' E 010°46'0 0.0
2018-Feb-01 14:58N 57°30' E 010°46'0 0.0
2018-Feb-01 11:52N 57°30' E 010°46'0 0.0
2018-Feb-01 10:58N 57°30' E 010°46'0 0.0
2018-Feb-01 10:28N 57°30' E 010°46'0 0.0
2018-Feb-01 09:58N 57°30' E 010°46'0 0.0
2018-Feb-01 09:28N 57°30' E 010°46'0 0.0
2018-Feb-01 08:58N 57°30' E 010°46'0 0.0
2018-Feb-01 08:28N 57°30' E 010°46'0 0.0
2018-Feb-01 07:28N 57°30' E 010°46'0 0.0
2018-Feb-01 06:58N 57°30' E 010°46'0 0.0
2018-Feb-01 06:28N 57°30' E 010°46'0 0.0
2018-Feb-01 05:58N 57°30' E 010°46'0 0.0
2018-Feb-01 05:28N 57°30' E 010°46'0 0.0
2018-Feb-01 04:58N 57°30' E 010°46'0 0.0
2018-Feb-01 04:28N 57°30' E 010°46'0 0.0
2018-Feb-01 03:52N 57°30' E 010°46'0 0.0
2018-Feb-01 02:49N 57°30' E 010°46'0 0.0
2018-Feb-01 02:22N 57°30' E 010°46'0 0.0
2018-Feb-01 01:46N 57°30' E 010°46'0 0.0
2018-Feb-01 01:28N 57°30' E 010°46'0 0.0
2018-Feb-01 00:52N 57°30' E 010°46'0 0.1
2018-Feb-01 00:25N 57°30' E 010°46'0 0.0
2018-Jan-31 23:55N 57°30' E 010°46'0 0.0
2018-Jan-31 22:58N 57°30' E 010°46'0 0.0
2018-Jan-31 20:58N 57°30' E 010°46'0 0.0
2018-Jan-31 20:22N 57°30' E 010°46'0 0.0
2018-Jan-31 19:58N 57°30' E 010°46'0 0.0
2018-Jan-31 19:28N 57°30' E 010°46'0 0.0
2018-Jan-31 18:58N 57°30' E 010°46'0 0.0
2018-Jan-31 18:28N 57°30' E 010°46'0 0.0
2018-Jan-31 17:58N 57°30' E 010°46'0 0.1
2018-Jan-31 17:25N 57°30' E 010°46'0 0.1
2018-Jan-31 16:58N 57°30' E 010°46'0 0.0
2018-Jan-31 16:22N 57°30' E 010°46'0 0.0
2018-Jan-31 15:58N 57°30' E 010°46'0 0.0
2018-Jan-31 15:10N 57°30' E 010°46'0 0.1
2018-Jan-31 14:58N 57°30' E 010°46'0 0.0
2018-Jan-31 14:28N 57°30' E 010°46'0 0.0
2018-Jan-31 12:58N 57°30' E 010°46'0 0.0
2018-Jan-31 12:22N 57°30' E 010°46'0 0.0
2018-Jan-31 11:58N 57°30' E 010°46'0 0.0
2018-Jan-31 10:55N 57°30' E 010°46'0 0.0
2018-Jan-31 10:25N 57°30' E 010°46'0 0.0
2018-Jan-31 09:55N 57°30' E 010°46'0 0.0
2018-Jan-31 09:28N 57°30' E 010°46'0 0.0
2018-Jan-31 08:55N 57°30' E 010°46'0 0.0
2018-Jan-31 08:22N 57°30' E 010°46'0 0.0
2018-Jan-31 07:34N 57°30' E 010°46'0 0.0
2018-Jan-31 07:13N 57°30' E 010°46'0 0.0
2018-Jan-31 04:46N 57°30' E 010°46'0 0.0
2018-Jan-31 02:58N 57°30' E 010°46'0 0.0
2018-Jan-31 02:28N 57°30' E 010°46'0 0.0
2018-Jan-31 01:55N 57°30' E 010°46'0 0.0
2018-Jan-31 01:25N 57°30' E 010°46'0 0.0
2018-Jan-31 00:58N 57°30' E 010°46'0 0.0
2018-Jan-30 23:16N 57°30' E 010°46'0 0.0
2018-Jan-30 22:58N 57°30' E 010°46'0 0.0
2018-Jan-30 22:28N 57°30' E 010°46'0 0.0
2018-Jan-30 21:28N 57°30' E 010°46'0 0.0
2018-Jan-30 20:58N 57°30' E 010°46'0 0.1
2018-Jan-30 20:28N 57°30' E 010°46'0 0.0
2018-Jan-30 19:55N 57°30' E 010°46'0 0.0
2018-Jan-30 18:46N 57°30' E 010°46'0 0.0
2018-Jan-30 18:22N 57°30' E 010°46'0 0.1
2018-Jan-30 17:49N 57°30' E 010°46'0 0.2
2018-Jan-30 17:28N 57°30' E 010°46'0 0.1
2018-Jan-30 16:58N 57°30' E 010°46'0 0.1
2018-Jan-30 16:28N 57°30' E 010°46'0 0.0
2018-Jan-30 15:58N 57°30' E 010°46'0 0.1
2018-Jan-30 15:28N 57°30' E 010°46'0 0.0
2018-Jan-30 14:55N 57°30' E 010°46'  
Track history (hours):
 
Tides and Currents Weather Stations Pressure Air Temp Water Temp Dewpoint Dewpoint Depression Visibility Wind Speed Wind Dir Waves Ship Positions

Bro Anna

Last reported at 2018-Feb-09 14:30 UTC. Time now 2018-Feb-20 19:49 UTC.
Position N 49°49' W 003°23'.
Warning: this ship's position is 11 days out of date.

Length 144 m; draft 6 m.

Type: Tanker. MMSI: 564066000.

Date/timePositionNaut miles runAvg speedWind from/ knotsBaromVisibWave heightAir tempDewpointWater temp
2018-Feb-09 14:30N 49°49' W 003°23'4 7.8
2018-Feb-09 14:00N 49°51' W 003°17'4 7.7
2018-Feb-09 13:30N 49°53' W 003°12'4 8.1
2018-Feb-09 13:00N 49°55' W 003°07'4 8.3
2018-Feb-09 12:30N 49°58' W 003°01'4 8.2
2018-Feb-09 12:00N 49°59' W 002°55'8 8.1
2018-Feb-09 11:00N 50°01' W 002°43'5510.0
2018-Feb-09 05:30N 50°16' W 001°20'40 9.0
2018-Feb-09 01:00N 50°27' W 000°19'5 9.8
2018-Feb-09 00:30N 50°28' W 000°12'510.3
2018-Feb-09 00:00N 50°30' W 000°04'1110.9
2018-Feb-08 23:00N 50°32' E 000°13'611.5
2018-Feb-08 22:30N 50°34' E 000°21'611.7
2018-Feb-08 22:00N 50°35' E 000°30'611.6
2018-Feb-08 21:30N 50°38' E 000°38'611.7
2018-Feb-08 21:00N 50°41' E 000°46'611.3
2018-Feb-08 20:30N 50°44' E 000°53'611.1
2018-Feb-08 20:00N 50°47' E 001°01'25 9.8
2018-Feb-08 17:30N 51°04' E 001°30'4 8.9
2018-Feb-08 17:00N 51°07' E 001°35'5 9.4
2018-Feb-08 16:30N 51°10' E 001°40'510.3
2018-Feb-08 16:00N 51°14' E 001°46'1211.7
2018-Feb-08 15:00N 51°25' E 001°54'1312.6
2018-Feb-08 14:00N 51°34' E 002°06'611.2
2018-Feb-08 13:30N 51°39' E 002°12'1010.1
2018-Feb-08 12:30N 51°46' E 002°23'257 8.6
2018-Feb-07 06:33N 55°32' E 005°51'211.5
2018-Feb-07 06:22N 55°33' E 005°52'411.4
2018-Feb-07 05:59N 55°37' E 005°56'611.4
2018-Feb-07 05:29N 55°42' E 006°01'18911.3
2018-Feb-06 12:46N 57°49' E 010°17'312.8
2018-Feb-06 12:30N 57°49' E 010°24'612.9
2018-Feb-06 12:00N 57°49' E 010°36'612.1
2018-Feb-06 11:30N 57°47' E 010°47'613.0
2018-Feb-06 11:00N 57°41' E 010°44'4 7.9
2018-Feb-06 10:30N 57°38' E 010°38'1 2.1
2018-Feb-06 09:58N 57°39' E 010°37'0 0.0
2018-Feb-06 09:28N 57°39' E 010°37'0 0.0
2018-Feb-06 08:58N 57°39' E 010°37'0 0.0
2018-Feb-06 08:28N 57°39' E 010°37'0 0.0
2018-Feb-06 07:58N 57°39' E 010°37'0 0.0
2018-Feb-06 07:28N 57°39' E 010°37'0 0.0
2018-Feb-06 06:58N 57°39' E 010°37'0 0.0
2018-Feb-06 06:28N 57°39' E 010°37'0 0.0
2018-Feb-06 05:58N 57°39' E 010°37'0 0.0
2018-Feb-06 05:28N 57°39' E 010°37'0 0.0
2018-Feb-06 04:58N 57°39' E 010°37'0 0.0
2018-Feb-06 04:28N 57°39' E 010°37'0 0.0
2018-Feb-06 03:52N 57°39' E 010°37'0 0.0
2018-Feb-06 03:28N 57°39' E 010°37'0 0.0
2018-Feb-06 02:58N 57°39' E 010°37'0 0.0
2018-Feb-06 02:28N 57°39' E 010°37'0 0.0
2018-Feb-06 01:55N 57°39' E 010°37'0 0.0
2018-Feb-06 01:28N 57°39' E 010°37'0 0.0
2018-Feb-06 00:58N 57°39' E 010°37'0 0.0
2018-Feb-06 00:28N 57°39' E 010°37'0 0.0
2018-Feb-05 23:52N 57°39' E 010°37'0 0.0
2018-Feb-05 23:22N 57°39' E 010°37'0 0.0
2018-Feb-05 22:58N 57°39' E 010°37'0 0.0
2018-Feb-05 22:28N 57°39' E 010°37'0 0.1
2018-Feb-05 21:58N 57°39' E 010°37'0 0.1
2018-Feb-05 21:28N 57°39' E 010°37'0 0.0
2018-Feb-05 20:58N 57°39' E 010°37'0 0.0
2018-Feb-05 20:28N 57°39' E 010°37'0 0.0
2018-Feb-05 18:52N 57°39' E 010°37'0 0.0
2018-Feb-05 18:19N 57°39' E 010°37'0 0.0
2018-Feb-05 17:34N 57°39' E 010°37'0 0.0
2018-Feb-05 17:04N 57°39' E 010°37'0 0.0
2018-Feb-05 16:19N 57°39' E 010°37'0 0.0
2018-Feb-05 15:55N 57°39' E 010°37'0 0.0
2018-Feb-05 15:28N 57°39' E 010°37'0 0.0
2018-Feb-05 14:55N 57°39' E 010°37'0 0.1
2018-Feb-05 14:25N 57°39' E 010°37'0 0.0
2018-Feb-05 13:40N 57°39' E 010°37'0 0.0
2018-Feb-05 12:55N 57°39' E 010°37'0 0.0
2018-Feb-05 12:10N 57°39' E 010°37'0 0.1
2018-Feb-05 11:58N 57°39' E 010°37'0 0.1
2018-Feb-05 11:28N 57°39' E 010°37'0 0.0
2018-Feb-05 10:40N 57°39' E 010°37'0 0.0
2018-Feb-05 10:28N 57°39' E 010°37'0 0.1
2018-Feb-05 09:52N 57°39' E 010°37'0 0.0
2018-Feb-05 09:25N 57°39' E 010°37'0 0.0
2018-Feb-05 08:58N 57°39' E 010°37'0 0.1
2018-Feb-05 08:28N 57°39' E 010°37'0 0.0
2018-Feb-05 07:58N 57°39' E 010°37'0 0.0
2018-Feb-05 07:28N 57°39' E 010°37'0 0.0
2018-Feb-05 06:55N 57°39' E 010°37'0 0.0
2018-Feb-05 06:19N 57°39' E 010°37'0 0.0
2018-Feb-05 05:28N 57°39' E 010°37'0 0.0
2018-Feb-05 04:52N 57°39' E 010°37'0 0.1
2018-Feb-05 04:28N 57°39' E 010°37'0 0.0
2018-Feb-05 03:58N 57°39' E 010°37'0 0.0
2018-Feb-05 03:28N 57°39' E 010°37'0 0.0
2018-Feb-05 02:58N 57°39' E 010°37'0 0.0
2018-Feb-05 02:25N 57°39' E 010°37'0 0.0
2018-Feb-05 01:58N 57°39' E 010°37'0 0.0
2018-Feb-05 01:28N 57°39' E 010°37'0 0.0
2018-Feb-05 00:58N 57°39' E 010°37'0 0.0
2018-Feb-05 00:28N 57°39' E 010°37'0 0.0
2018-Feb-04 23:55N 57°39' E 010°37'0 0.0
2018-Feb-04 23:22N 57°39' E 010°37'0 0.0
2018-Feb-04 22:58N 57°39' E 010°37'0 0.0
2018-Feb-04 22:28N 57°39' E 010°37'0 0.1
2018-Feb-04 21:58N 57°39' E 010°37'0 0.0
2018-Feb-04 21:28N 57°39' E 010°37'0 0.0
2018-Feb-04 20:58N 57°39' E 010°37'0 0.0
2018-Feb-04 19:58N 57°39' E 010°37'0 0.0
2018-Feb-04 19:28N 57°39' E 010°37'0 0.1
2018-Feb-04 18:58N 57°39' E 010°37'0 0.0
2018-Feb-04 18:28N 57°39' E 010°37'0 0.0
2018-Feb-04 17:58N 57°39' E 010°37'0 0.0
2018-Feb-04 17:25N 57°39' E 010°37'0 0.0
2018-Feb-04 15:28N 57°39' E 010°37'0 0.1
2018-Feb-04 14:55N 57°39' E 010°37'0 0.0
2018-Feb-04 14:28N 57°39' E 010°37'0 0.0
2018-Feb-04 13:58N 57°39' E 010°37'0 0.0
2018-Feb-04 13:28N 57°39' E 010°37'0 0.0
2018-Feb-04 12:58N 57°39' E 010°37'0 0.0
2018-Feb-04 12:25N 57°39' E 010°37'0 0.1
2018-Feb-04 11:58N 57°39' E 010°37'0 0.1
2018-Feb-04 11:28N 57°39' E 010°37'0 0.0
2018-Feb-04 09:58N 57°39' E 010°37'0 0.0
2018-Feb-04 08:58N 57°39' E 010°37'0 0.0
2018-Feb-04 08:28N 57°39' E 010°37'0 0.1
2018-Feb-04 07:58N 57°39' E 010°37'0 0.1
2018-Feb-04 07:28N 57°39' E 010°37'0 0.0
2018-Feb-04 06:58N 57°39' E 010°37'0 0.1
2018-Feb-04 06:28N 57°39' E 010°37'0 0.0
2018-Feb-04 06:01N 57°39' E 010°37'0 0.0
2018-Feb-04 05:28N 57°39' E 010°37'0 0.1
2018-Feb-04 04:58N 57°39' E 010°37'0 0.1
2018-Feb-04 04:28N 57°39' E 010°37'0 0.1
2018-Feb-04 03:55N 57°39' E 010°37'0 0.1
2018-Feb-04 03:28N 57°39' E 010°37'0 0.1
2018-Feb-04 02:58N 57°39' E 010°37'0 0.1
2018-Feb-04 02:28N 57°39' E 010°37'0 0.1
2018-Feb-04 01:58N 57°39' E 010°37'0 0.1
2018-Feb-04 01:28N 57°39' E 010°37'0 0.1
2018-Feb-04 00:58N 57°39' E 010°37'0 0.0
2018-Feb-04 00:28N 57°39' E 010°37'0 0.0
2018-Feb-03 23:58N 57°39' E 010°37'0 0.0
2018-Feb-03 23:28N 57°39' E 010°37'0 0.1
2018-Feb-03 22:58N 57°39' E 010°37'0 0.0
2018-Feb-03 22:25N 57°39' E 010°37'0 0.1
2018-Feb-03 21:58N 57°39' E 010°37'0 0.1
2018-Feb-03 21:28N 57°39' E 010°37'0 0.1
2018-Feb-03 20:58N 57°39' E 010°37'0 0.1
2018-Feb-03 20:28N 57°39' E 010°37'0 0.0
2018-Feb-03 19:55N 57°39' E 010°37'0 0.0
2018-Feb-03 18:28N 57°39' E 010°37'0 0.1
2018-Feb-03 18:01N 57°39' E 010°37'0 0.0
2018-Feb-03 17:28N 57°39' E 010°37'0 0.0
2018-Feb-03 16:55N 57°39' E 010°37'0 0.0
2018-Feb-03 15:58N 57°39' E 010°37'0 0.0
2018-Feb-03 15:28N 57°39' E 010°37'0 0.0
2018-Feb-03 14:55N 57°39' E 010°37'0 0.1
2018-Feb-03 14:28N 57°39' E 010°37'0 0.0
2018-Feb-03 13:58N 57°39' E 010°37'0 0.1
2018-Feb-03 13:25N 57°39' E 010°37'0 0.0
2018-Feb-03 12:58N 57°39' E 010°37'0 0.0
2018-Feb-03 12:28N 57°39' E 010°37'0 0.0
2018-Feb-03 11:55N 57°39' E 010°37'0 0.0
2018-Feb-03 11:28N 57°39' E 010°37'0 0.0
2018-Feb-03 10:55N 57°39' E 010°37'0 0.0
2018-Feb-03 10:28N 57°39' E 010°37'0 0.0
2018-Feb-03 09:58N 57°39' E 010°37'0 0.0
2018-Feb-03 09:28N 57°39' E 010°37'0 0.0
2018-Feb-03 08:58N 57°39' E 010°37'0 0.0
2018-Feb-03 08:28N 57°39' E 010°37'0 0.0
2018-Feb-03 07:58N 57°39' E 010°37'0 0.0
2018-Feb-03 06:22N 57°39' E 010°37'0 0.0
2018-Feb-03 05:58N 57°39' E 010°37'0 0.0
2018-Feb-03 05:28N 57°39' E 010°37'0 0.0
2018-Feb-03 04:52N 57°39' E 010°37'0 0.0
2018-Feb-03 03:58N 57°39' E 010°37'0 0.0
2018-Feb-03 03:25N 57°39' E 010°37'0 0.0
2018-Feb-03 01:58N 57°39' E 010°37'0 0.0
2018-Feb-03 01:28N 57°39' E 010°37'0 0.0
2018-Feb-03 00:58N 57°39' E 010°37'0 0.1
2018-Feb-03 00:25N 57°39' E 010°37'0 0.0
2018-Feb-02 23:58N 57°39' E 010°37'0 0.1
2018-Feb-02 23:25N 57°39' E 010°37'0 0.1
2018-Feb-02 22:58N 57°39' E 010°37'0 0.3
2018-Feb-02 22:30N 57°39' E 010°37'2 3.8
2018-Feb-02 22:00N 57°37' E 010°38'5 9.3
2018-Feb-02 21:30N 57°33' E 010°41'2 4.9
2018-Feb-02 21:00N 57°31' E 010°41'0 0.8
2018-Feb-02 20:30N 57°31' E 010°41'0 0.1
2018-Feb-02 20:00N 57°31' E 010°41'0 0.0
2018-Feb-02 19:00N 57°31' E 010°41'0 0.1
2018-Feb-02 18:30N 57°31' E 010°41'0 0.0
2018-Feb-02 18:00N 57°31' E 010°41'0 0.0
2018-Feb-02 17:30N 57°31' E 010°41'0 0.0
2018-Feb-02 17:00N 57°31' E 010°41'0 0.0
2018-Feb-02 16:30N 57°31' E 010°41'0 0.0
2018-Feb-02 15:30N 57°31' E 010°41'0 0.0
2018-Feb-02 14:30N 57°31' E 010°41'0 0.1
2018-Feb-02 13:57N 57°31' E 010°41'0 0.2
2018-Feb-02 13:30N 57°31' E 010°41'0 0.1
2018-Feb-02 13:00N 57°31' E 010°41'0 0.1
2018-Feb-02 12:30N 57°31' E 010°41'0 0.1
2018-Feb-02 12:00N 57°31' E 010°41'0 0.0
2018-Feb-02 11:30N 57°31' E 010°41'0 0.0
2018-Feb-02 11:00N 57°31' E 010°41'0 0.0
2018-Feb-02 10:30N 57°31' E 010°41'0 0.0
2018-Feb-02 10:00N 57°31' E 010°41'0 0.0
2018-Feb-02 09:27N 57°31' E 010°41'0 0.1
2018-Feb-02 08:57N 57°31' E 010°41'0 0.0
2018-Feb-02 08:30N 57°31' E 010°41'0 0.1
2018-Feb-02 08:00N 57°31' E 010°41'0 0.0
2018-Feb-02 07:30N 57°31' E 010°41'0 0.0
2018-Feb-02 06:57N 57°31' E 010°41'0 0.0
2018-Feb-02 06:30N 57°31' E 010°41'0 0.1
2018-Feb-02 05:57N 57°31' E 010°41'0 0.0
2018-Feb-02 05:24N 57°31' E 010°41'0 0.0
2018-Feb-02 05:00N 57°31' E 010°41'0 0.0
2018-Feb-02 04:24N 57°31' E 010°41'0 0.1
2018-Feb-02 03:48N 57°31' E 010°41'0 0.0
2018-Feb-01 19:28N 57°31' E 010°41'2 3.3
2018-Feb-01 19:00N 57°31' E 010°43'2 2.5
2018-Feb-01 18:19N 57°30' E 010°46'0 0.1
2018-Feb-01 17:46N 57°30' E 010°46'0 0.0
2018-Feb-01 17:13N 57°30' E 010°46'0 0.0
2018-Feb-01 16:58N 57°30' E 010°46'0 0.0
2018-Feb-01 16:25N 57°30' E 010°46'0 0.0
2018-Feb-01 15:58N 57°30' E 010°46'0 0.0
2018-Feb-01 15:28N 57°30' E 010°46'0 0.0
2018-Feb-01 14:58N 57°30' E 010°46'0 0.0
2018-Feb-01 11:52N 57°30' E 010°46'0 0.0
2018-Feb-01 10:58N 57°30' E 010°46'0 0.0
2018-Feb-01 10:28N 57°30' E 010°46'0 0.0
2018-Feb-01 09:58N 57°30' E 010°46'0 0.0
2018-Feb-01 09:28N 57°30' E 010°46'0 0.0
2018-Feb-01 08:58N 57°30' E 010°46'0 0.0
2018-Feb-01 08:28N 57°30' E 010°46'0 0.0
2018-Feb-01 07:28N 57°30' E 010°46'0 0.0
2018-Feb-01 06:58N 57°30' E 010°46'0 0.0
2018-Feb-01 06:28N 57°30' E 010°46'0 0.0
2018-Feb-01 05:58N 57°30' E 010°46'0 0.0
2018-Feb-01 05:28N 57°30' E 010°46'0 0.0
2018-Feb-01 04:58N 57°30' E 010°46'0 0.0
2018-Feb-01 04:28N 57°30' E 010°46'0 0.0
2018-Feb-01 03:52N 57°30' E 010°46'0 0.0
2018-Feb-01 02:49N 57°30' E 010°46'0 0.0
2018-Feb-01 02:22N 57°30' E 010°46'0 0.0
2018-Feb-01 01:46N 57°30' E 010°46'0 0.0
2018-Feb-01 01:28N 57°30' E 010°46'0 0.0
2018-Feb-01 00:52N 57°30' E 010°46'0 0.1
2018-Feb-01 00:25N 57°30' E 010°46'0 0.0
2018-Jan-31 23:55N 57°30' E 010°46'0 0.0
2018-Jan-31 22:58N 57°30' E 010°46'0 0.0
2018-Jan-31 20:58N 57°30' E 010°46'0 0.0
2018-Jan-31 20:22N 57°30' E 010°46'0 0.0
2018-Jan-31 19:58N 57°30' E 010°46'0 0.0
2018-Jan-31 19:28N 57°30' E 010°46'0 0.0
2018-Jan-31 18:58N 57°30' E 010°46'0 0.0
2018-Jan-31 18:28N 57°30' E 010°46'0 0.0
2018-Jan-31 17:58N 57°30' E 010°46'0 0.1
2018-Jan-31 17:25N 57°30' E 010°46'0 0.1
2018-Jan-31 16:58N 57°30' E 010°46'0 0.0
2018-Jan-31 16:22N 57°30' E 010°46'0 0.0
2018-Jan-31 15:58N 57°30' E 010°46'0 0.0
2018-Jan-31 15:10N 57°30' E 010°46'0 0.1
2018-Jan-31 14:58N 57°30' E 010°46'0 0.0
2018-Jan-31 14:28N 57°30' E 010°46'0 0.0
2018-Jan-31 12:58N 57°30' E 010°46'0 0.0
2018-Jan-31 12:22N 57°30' E 010°46'0 0.0
2018-Jan-31 11:58N 57°30' E 010°46'0 0.0
2018-Jan-31 10:55N 57°30' E 010°46'0 0.0
2018-Jan-31 10:25N 57°30' E 010°46'0 0.0
2018-Jan-31 09:55N 57°30' E 010°46'0 0.0
2018-Jan-31 09:28N 57°30' E 010°46'0 0.0
2018-Jan-31 08:55N 57°30' E 010°46'0 0.0
2018-Jan-31 08:22N 57°30' E 010°46'0 0.0
2018-Jan-31 07:34N 57°30' E 010°46'0 0.0
2018-Jan-31 07:13N 57°30' E 010°46'0 0.0
2018-Jan-31 04:46N 57°30' E 010°46'0 0.0
2018-Jan-31 02:58N 57°30' E 010°46'0 0.0
2018-Jan-31 02:28N 57°30' E 010°46'0 0.0
2018-Jan-31 01:55N 57°30' E 010°46'0 0.0
2018-Jan-31 01:25N 57°30' E 010°46'0 0.0
2018-Jan-31 00:58N 57°30' E 010°46'0 0.0
2018-Jan-30 23:16N 57°30' E 010°46'0 0.0
2018-Jan-30 22:58N 57°30' E 010°46'0 0.0
2018-Jan-30 22:28N 57°30' E 010°46'0 0.0
2018-Jan-30 21:28N 57°30' E 010°46'0 0.0
2018-Jan-30 20:58N 57°30' E 010°46'0 0.1
2018-Jan-30 20:28N 57°30' E 010°46'0 0.0
2018-Jan-30 19:55N 57°30' E 010°46'0 0.0
2018-Jan-30 18:46N 57°30' E 010°46'0 0.0
2018-Jan-30 18:22N 57°30' E 010°46'0 0.1
2018-Jan-30 17:49N 57°30' E 010°46'0 0.2
2018-Jan-30 17:28N 57°30' E 010°46'0 0.1
2018-Jan-30 16:58N 57°30' E 010°46'0 0.1
2018-Jan-30 16:28N 57°30' E 010°46'0 0.0
2018-Jan-30 15:58N 57°30' E 010°46'0 0.1
2018-Jan-30 15:28N 57°30' E 010°46'0 0.0
2018-Jan-30 14:55N 57°30' E 010°46'  

Dump ship's entire track history